ベロオリゾンテ の空港の天気 - METARとTAF

タンクレド・ネヴェス国際空港 ( SBCF / CNF ) - ブラジル ミナスジェライス州ベロオリゾンテ
飛行場実況気象(Metar)
観測時間04/26 08:00 BRT (04/26 11:00 UTC)
風向・風速南東 2m/s
視程10km以上
天気現象
なし
気温19℃
湿度83%
気圧1023hPa
METARSBCF 261100Z 14003KT CAVOK 19/16 Q1023
過去の天気等 Google飛行場航空写真 Wunderground天気予報

過去48時間のMETAR

飛行場予報(TAF)
発表時間: 4/25 23:00 BRT (4/26 02:00 UTC)
予報対象時間: 26日3時 BRT ~ 27日3時 BRT
風向・風速東 4m/s
視程7,000m
少しの雲 雲底高度 910m
26日9時 BRT ~ 26日11時 BRT に徐々に
風向・風速東北東 4m/s
視程7,000m
全天の4割程度の雲 雲底高度 1,070m
26日12時 BRT から 確率 30% で
全天の8割程度の雲 雲底高度 1,220m
26日21時 BRT ~ 26日23時 BRT に徐々に
風向・風速東 5m/s
視程10km以上
なし
TAF SBCF 260200Z 2606/2706 10008KT 7000 FEW030 TN16/2606Z TX24/2616Z
BECMG 2612/2614 07008KT 7000 SCT035
PROB30 2615/2618 BKN040
BECMG 2618/262 0 09008KT 7000 SCT040
BECMG 2700/2702 10010KT CAVOK RMK PDE